CheckWX is a tool to help pilots better visualize weather data.  It is not intended as a substitute for an official pre-flight weather briefing.

03:53:24 UTC

LIBA TAF
Amendola Airport
Foggia, Italy
TAF LIBA 210200Z 2103/2112 27012KT CAVOK

Feb-21@
03:00 UTC

Feb-21 @ 03:00 UTC

Feb-21@
12:00 UTC

Feb-21 @ 12:00 UTC

TAF LIBA 210200Z 2103/2112 27012KT CAVOK
Wind
  • 270° at 12 KTS
Conditions
No significant weather
Cloud Levels
  • No significant clouds